createdAt,value
2023-10-22T00:00:33.396Z,95654.01
2023-10-22T00:03:21.848Z,95657.45
2023-10-22T00:05:50.502Z,95656.19
2023-10-22T00:08:18.894Z,95656.35
2023-10-22T00:10:47.272Z,95663.98
2023-10-22T00:13:15.640Z,95673.44
2023-10-22T00:15:44.070Z,95669.04
2023-10-22T00:18:12.487Z,95674.38
2023-10-22T00:20:40.933Z,95688.45
2023-10-22T00:23:09.288Z,95679.50
2023-10-22T00:25:37.885Z,95673.04
2023-10-22T00:28:06.232Z,95689.75
2023-10-22T00:30:35.584Z,95688.02
2023-10-22T00:33:04.091Z,95681.22
2023-10-22T00:35:32.799Z,95674.08
2023-10-22T00:38:01.148Z,95668.22
2023-10-22T00:40:29.480Z,95671.52
2023-10-22T00:42:57.760Z,95670.59
2023-10-22T00:45:26.184Z,95668.10
2023-10-22T00:47:54.678Z,95666.29
2023-10-22T00:50:24.242Z,95665.10
2023-10-22T00:52:52.685Z,95660.38
2023-10-22T00:55:21.086Z,95651.34
2023-10-22T00:57:49.841Z,95644.39
2023-10-22T01:00:20.571Z,95643.57
2023-10-22T01:02:49.036Z,95636.52
2023-10-22T01:05:17.654Z,95645.08
2023-10-22T01:07:48.156Z,95644.40
2023-10-22T01:10:16.557Z,95650.98
2023-10-22T01:12:44.872Z,95653.45
2023-10-22T01:15:13.371Z,95651.11
2023-10-22T01:17:41.842Z,95649.41
2023-10-22T01:20:10.842Z,95653.67
2023-10-22T01:22:39.225Z,95653.34
2023-10-22T01:25:07.846Z,95659.46
2023-10-22T01:27:36.750Z,95657.67
2023-10-22T01:30:05.952Z,95649.41
2023-10-22T01:32:35.231Z,95648.40
2023-10-22T01:35:04.294Z,95647.88
2023-10-22T01:37:38.155Z,95652.30
2023-10-22T01:40:07.070Z,95648.61
2023-10-22T01:42:35.504Z,95644.23
2023-10-22T01:45:04.359Z,95643.25
2023-10-22T01:47:32.831Z,95639.86
2023-10-22T01:50:01.327Z,95643.20
2023-10-22T01:52:29.704Z,95641.25
2023-10-22T01:54:58.210Z,95636.06
2023-10-22T01:57:26.782Z,95635.95
2023-10-22T01:59:55.193Z,95630.73
2023-10-22T02:02:24.374Z,95628.16
2023-10-22T02:04:53.445Z,95622.92
2023-10-22T02:07:21.772Z,95619.58
2023-10-22T02:09:50.294Z,95619.19
2023-10-22T02:12:18.625Z,95622.03
2023-10-22T02:14:46.994Z,95617.17
2023-10-22T02:17:15.281Z,95619.73
2023-10-22T02:19:44.133Z,95624.66
2023-10-22T02:22:13.537Z,95623.58
2023-10-22T02:24:41.807Z,95624.43
2023-10-22T02:27:10.369Z,95617.69
2023-10-22T02:29:38.855Z,95612.45
2023-10-22T02:32:08.073Z,95617.03
2023-10-22T02:34:36.953Z,95621.48
2023-10-22T02:37:05.475Z,95624.75
2023-10-22T02:39:33.873Z,95625.73
2023-10-22T02:42:02.188Z,95627.80
2023-10-22T02:44:30.628Z,95626.59
2023-10-22T02:47:01.699Z,95625.55
2023-10-22T02:49:31.545Z,95627.85
2023-10-22T02:52:00.718Z,95630.33
2023-10-22T02:54:29.212Z,95631.38
2023-10-22T02:56:57.681Z,95629.20
2023-10-22T02:59:26.107Z,95623.60
2023-10-22T03:01:54.924Z,95625.59
2023-10-22T03:04:23.438Z,95627.69
2023-10-22T03:06:54.259Z,95630.17
2023-10-22T03:09:22.634Z,95633.89
2023-10-22T03:11:51.059Z,95637.70
2023-10-22T03:14:21.764Z,95638.29
2023-10-22T03:16:50.399Z,95638.02
2023-10-22T03:19:20.936Z,95639.48
2023-10-22T03:21:49.266Z,95645.43
2023-10-22T03:24:18.909Z,95647.05
2023-10-22T03:26:47.917Z,95648.34
2023-10-22T03:29:16.304Z,95650.42
2023-10-22T03:31:44.610Z,95653.99
2023-10-22T03:34:13.358Z,95654.92
2023-10-22T03:36:41.712Z,95654.73
2023-10-22T03:39:10.102Z,95649.02
2023-10-22T03:41:40.367Z,95646.93
2023-10-22T03:44:08.709Z,95652.83
2023-10-22T03:46:37.150Z,95649.02
2023-10-22T03:49:05.609Z,95645.05
2023-10-22T03:51:34.027Z,95643.33
2023-10-22T03:54:02.824Z,95642.51
2023-10-22T03:56:31.223Z,95642.79
2023-10-22T03:59:00.891Z,95645.32
2023-10-22T04:01:29.236Z,95639.23
2023-10-22T04:03:57.856Z,95645.16
2023-10-22T04:06:26.216Z,95647.20
2023-10-22T04:08:54.557Z,95655.33
2023-10-22T04:11:22.830Z,95647.48
2023-10-22T04:13:51.132Z,95655.52
2023-10-22T04:16:19.708Z,95646.11
2023-10-22T04:18:48.105Z,95653.86
2023-10-22T04:21:17.237Z,95659.07
2023-10-22T04:23:45.766Z,95661.52
2023-10-22T04:26:15.142Z,95671.98
2023-10-22T04:28:47.579Z,95673.51
2023-10-22T04:31:15.942Z,95673.33
2023-10-22T04:33:44.331Z,95673.11
2023-10-22T04:36:22.843Z,95671.40
2023-10-22T04:38:51.161Z,95674.09
2023-10-22T04:41:19.505Z,95676.96
2023-10-22T04:43:47.809Z,95683.05
2023-10-22T04:46:16.738Z,95692.24
2023-10-22T04:48:45.603Z,95696.59
2023-10-22T04:51:14.122Z,95704.34
2023-10-22T04:53:42.520Z,95711.48
2023-10-22T04:56:10.861Z,95720.74
2023-10-22T04:58:39.239Z,95726.00
2023-10-22T05:01:07.529Z,95734.21
2023-10-22T05:03:36.058Z,95741.41
2023-10-22T05:06:09.682Z,95746.23
2023-10-22T05:08:42.336Z,95751.71
2023-10-22T05:11:14.964Z,95759.96
2023-10-22T05:13:45.409Z,95760.39
2023-10-22T05:16:14.739Z,95754.42
2023-10-22T05:18:43.237Z,95753.50
2023-10-22T05:21:11.738Z,95755.02
2023-10-22T05:23:40.124Z,95759.08
2023-10-22T05:26:13.214Z,95766.41
2023-10-22T05:28:41.791Z,95771.31
2023-10-22T05:31:19.013Z,95769.05
2023-10-22T05:33:47.661Z,95779.63
2023-10-22T05:36:20.784Z,95787.40
2023-10-22T05:38:49.914Z,95797.05
2023-10-22T05:41:27.079Z,95800.37
2023-10-22T05:44:02.952Z,95800.80
2023-10-22T05:46:35.526Z,95807.44
2023-10-22T05:49:05.272Z,95809.56
2023-10-22T05:51:36.428Z,95814.65
2023-10-22T05:54:08.563Z,95815.17
2023-10-22T05:56:38.773Z,95826.77
2023-10-22T05:59:09.893Z,95825.92
2023-10-22T06:01:42.909Z,95829.66
2023-10-22T06:04:11.792Z,95838.89
2023-10-22T06:06:40.256Z,95839.16
2023-10-22T06:09:08.607Z,95837.60
2023-10-22T06:11:37.079Z,95841.46
2023-10-22T06:14:07.028Z,95838.98
2023-10-22T06:16:35.532Z,95836.67
2023-10-22T06:19:03.973Z,95836.42
2023-10-22T06:21:32.367Z,95834.73
2023-10-22T06:24:00.827Z,95835.27
2023-10-22T06:26:29.158Z,95840.88
2023-10-22T06:28:57.556Z,95840.83
2023-10-22T06:31:26.391Z,95842.85
2023-10-22T06:33:54.929Z,95847.45
2023-10-22T06:36:24.429Z,95855.63
2023-10-22T06:38:52.868Z,95856.55
2023-10-22T06:41:28.143Z,95858.09
2023-10-22T06:43:56.611Z,95861.88
2023-10-22T06:46:24.947Z,95860.96
2023-10-22T06:48:53.291Z,95859.02
2023-10-22T06:51:23.575Z,95857.56
2023-10-22T06:53:51.973Z,95862.17
2023-10-22T06:56:20.316Z,95862.61
2023-10-22T06:58:49.082Z,95867.80
2023-10-22T07:01:17.437Z,95871.38
2023-10-22T07:03:47.285Z,95872.36
2023-10-22T07:06:19.047Z,95870.25
2023-10-22T07:08:47.508Z,95872.77
2023-10-22T07:11:16.047Z,95880.45
2023-10-22T07:13:44.433Z,95878.59
2023-10-22T07:16:12.919Z,95880.08
2023-10-22T07:18:41.540Z,95875.63
2023-10-22T07:21:10.574Z,95879.91
2023-10-22T07:23:38.962Z,95877.08
2023-10-22T07:26:07.419Z,95883.42
2023-10-22T07:28:35.992Z,95886.33
2023-10-22T07:31:04.785Z,95889.20
2023-10-22T07:33:33.320Z,95890.97
2023-10-22T07:36:01.984Z,95898.13
2023-10-22T07:38:33.278Z,95901.27
2023-10-22T07:41:02.283Z,95902.39
2023-10-22T07:51:21.033Z,95906.86
2023-10-22T07:53:49.468Z,95909.91
2023-10-22T07:56:21.801Z,95909.02
2023-10-22T07:58:50.121Z,95913.88
2023-10-22T08:01:20.852Z,95916.42
2023-10-22T08:03:51.319Z,95914.23
2023-10-22T08:06:19.803Z,95913.56
2023-10-22T08:08:48.500Z,95910.69
2023-10-22T08:11:16.991Z,95911.42
2023-10-22T08:13:45.337Z,95912.88
2023-10-22T08:16:13.717Z,95915.16
2023-10-22T08:18:43.340Z,95912.47
2023-10-22T08:21:12.515Z,95905.18
2023-10-22T08:23:41.087Z,95905.06
2023-10-22T08:26:09.549Z,95911.16
2023-10-22T08:28:38.780Z,95919.18
2023-10-22T08:31:07.696Z,95924.75
2023-10-22T08:33:36.096Z,95927.98
2023-10-22T08:36:08.910Z,95921.07
2023-10-22T08:38:38.345Z,95922.02
2023-10-22T08:41:15.396Z,95917.92
2023-10-22T08:43:46.485Z,95920.27
2023-10-22T08:46:15.069Z,95916.11
2023-10-22T08:48:43.618Z,95916.52
2023-10-22T08:51:12.287Z,95912.62
2023-10-22T08:53:40.744Z,95917.20
2023-10-22T08:56:09.500Z,95918.38
2023-10-22T08:58:37.914Z,95916.44
2023-10-22T09:01:06.367Z,95916.09
2023-10-22T09:03:35.008Z,95913.52
2023-10-22T09:06:05.336Z,95908.86
2023-10-22T09:08:45.296Z,95906.62
2023-10-22T09:11:14.316Z,95908.63
2023-10-22T09:13:44.226Z,95906.85
2023-10-22T09:16:13.175Z,95904.42
2023-10-22T09:26:42.650Z,95898.77
2023-10-22T09:29:11.034Z,95895.11
2023-10-22T09:31:39.675Z,95890.41
2023-10-22T09:34:27.940Z,95889.59
2023-10-22T09:36:57.165Z,95888.46
2023-10-22T09:39:41.903Z,95886.95
2023-10-22T09:42:16.695Z,95889.45
2023-10-22T09:44:46.630Z,95887.66
2023-10-22T09:47:22.172Z,95885.55
2023-10-22T09:50:03.716Z,95881.85
2023-10-22T09:52:37.252Z,95886.38
2023-10-22T09:55:09.333Z,95884.91
2023-10-22T09:57:41.040Z,95887.48
2023-10-22T10:00:16.397Z,95886.91
2023-10-22T10:02:45.843Z,95881.17
2023-10-22T10:05:16.275Z,95882.10
2023-10-22T10:07:44.447Z,95884.43
2023-10-22T10:10:13.357Z,95883.02
2023-10-22T10:12:42.145Z,95883.08
2023-10-22T10:15:34.593Z,95888.56
2023-10-22T10:18:03.547Z,95883.67
2023-10-22T10:20:32.912Z,95888.14
2023-10-22T10:23:08.845Z,95892.30
2023-10-22T10:25:41.108Z,95894.61
2023-10-22T10:28:11.334Z,95896.52
2023-10-22T10:30:40.760Z,95893.40
2023-10-22T10:33:17.165Z,95893.73
2023-10-22T10:35:50.847Z,95898.45
2023-10-22T10:38:22.687Z,95897.61
2023-10-22T10:40:57.172Z,95890.05
2023-10-22T10:44:03.771Z,95890.50
2023-10-22T10:46:33.815Z,95888.49
2023-10-22T10:49:02.417Z,95887.54
2023-10-22T10:51:31.093Z,95890.67
2023-10-22T10:54:02.877Z,95887.92
2023-10-22T10:56:52.693Z,95883.11
2023-10-22T10:59:35.658Z,95883.97
2023-10-22T11:02:08.517Z,95885.56
2023-10-22T11:04:38.330Z,95882.30
2023-10-22T11:07:22.335Z,95880.36
2023-10-22T11:09:55.996Z,95884.59
2023-10-22T11:12:26.032Z,95887.67
2023-10-22T11:14:58.641Z,95888.45
2023-10-22T11:17:28.542Z,95898.94
2023-10-22T11:19:58.165Z,95894.25
2023-10-22T11:22:28.171Z,95897.45
2023-10-22T11:24:58.033Z,95893.94
2023-10-22T11:27:26.656Z,95892.16
2023-10-22T11:29:55.261Z,95887.51
2023-10-22T11:32:23.656Z,95889.59
2023-10-22T11:34:58.014Z,95894.26
2023-10-22T11:37:29.911Z,95889.91
2023-10-22T11:39:59.157Z,95896.20
2023-10-22T11:42:34.081Z,95888.72
2023-10-22T11:45:08.461Z,95891.70
2023-10-22T11:47:37.691Z,95900.79
2023-10-22T11:50:07.983Z,95906.70
2023-10-22T11:52:38.302Z,95909.34
2023-10-22T11:55:15.048Z,95911.05
2023-10-22T11:57:50.591Z,95906.80
2023-10-22T12:00:18.943Z,95904.47
2023-10-22T12:02:47.287Z,95904.23
2023-10-22T12:05:15.763Z,95903.20
2023-10-22T12:07:44.134Z,95902.55
2023-10-22T12:10:12.633Z,95902.09
2023-10-22T12:12:41.007Z,95906.68
2023-10-22T12:15:10.061Z,95900.09
2023-10-22T12:17:38.385Z,95901.61
2023-10-22T12:20:07.333Z,95894.59
2023-10-22T12:22:35.735Z,95887.90
2023-10-22T12:25:05.579Z,95888.59
2023-10-22T12:27:34.522Z,95891.77
2023-10-22T12:30:04.441Z,95896.40
2023-10-22T12:32:32.908Z,95891.98
2023-10-22T12:35:01.660Z,95887.89
2023-10-22T12:37:30.090Z,95886.08
2023-10-22T12:39:58.393Z,95885.77
2023-10-22T12:42:26.967Z,95886.42
2023-10-22T12:44:55.340Z,95886.69
2023-10-22T12:47:23.716Z,95890.34
2023-10-22T12:49:52.026Z,95892.69
2023-10-22T12:52:20.701Z,95899.00
2023-10-22T12:54:50.822Z,95892.47
2023-10-22T12:57:19.242Z,95898.23
2023-10-22T12:59:47.598Z,95901.30
2023-10-22T13:02:15.937Z,95902.59
2023-10-22T13:04:51.254Z,95901.27
2023-10-22T13:07:20.090Z,95912.58
2023-10-22T13:09:48.592Z,95916.28
2023-10-22T13:12:16.967Z,95920.63
2023-10-22T13:14:45.344Z,95920.35
2023-10-22T13:17:13.745Z,95914.99
2023-10-22T13:19:42.022Z,95915.81
2023-10-22T13:22:10.751Z,95910.70
2023-10-22T13:24:39.334Z,95910.52
2023-10-22T13:27:08.105Z,95909.11
2023-10-22T13:29:36.482Z,95907.09
2023-10-22T13:32:05.229Z,95905.53
2023-10-22T13:34:33.547Z,95907.87
2023-10-22T13:37:01.967Z,95913.24
2023-10-22T13:39:30.313Z,95913.73
2023-10-22T13:41:58.820Z,95912.39
2023-10-22T13:44:27.169Z,95911.63
2023-10-22T13:46:55.722Z,95909.64
2023-10-22T13:49:24.086Z,95911.70
2023-10-22T13:51:52.395Z,95907.95
2023-10-22T13:54:20.847Z,95913.14
2023-10-22T13:56:51.365Z,95919.06
2023-10-22T13:59:19.689Z,95926.35
2023-10-22T14:01:48.561Z,95921.48
2023-10-22T14:04:17.243Z,95916.58
2023-10-22T14:06:46.618Z,95912.21
2023-10-22T14:09:15.006Z,95914.35
2023-10-22T14:11:43.584Z,95910.39
2023-10-22T14:14:11.917Z,95904.73
2023-10-22T14:16:40.181Z,95906.95
2023-10-22T14:19:08.545Z,95911.58
2023-10-22T14:21:36.920Z,95909.44
2023-10-22T14:24:05.541Z,95912.61
2023-10-22T14:26:33.966Z,95920.23
2023-10-22T14:29:02.275Z,95927.50
2023-10-22T14:31:30.597Z,95927.02
2023-10-22T14:33:59.314Z,95922.96
2023-10-22T14:36:27.680Z,95922.81
2023-10-22T14:38:56.124Z,95925.33
2023-10-22T14:41:24.453Z,95928.68
2023-10-22T14:43:52.771Z,95938.80
2023-10-22T14:46:23.162Z,95939.85
2023-10-22T14:48:52.686Z,95939.67
2023-10-22T14:51:20.978Z,95938.58
2023-10-22T14:53:49.324Z,95938.75
2023-10-22T14:56:17.683Z,95938.81
2023-10-22T14:58:46.053Z,95943.71
2023-10-22T15:01:14.900Z,95941.26
2023-10-22T15:03:43.697Z,95948.37
2023-10-22T15:06:12.511Z,95958.25
2023-10-22T15:08:40.841Z,95967.90
2023-10-22T15:11:11.538Z,95974.05
2023-10-22T15:13:39.827Z,95976.07
2023-10-22T15:16:15.160Z,95977.42
2023-10-22T15:18:45.661Z,95971.09
2023-10-22T15:21:14.182Z,95975.95
2023-10-22T15:23:43.128Z,95981.13
2023-10-22T15:26:11.579Z,95979.70
2023-10-22T15:28:39.939Z,95984.84
2023-10-22T15:31:08.346Z,95986.52
2023-10-22T15:33:36.734Z,95989.94
2023-10-22T15:36:05.277Z,95995.79
2023-10-22T15:38:33.627Z,95995.73
2023-10-22T15:41:02.060Z,95998.18
2023-10-22T15:43:30.427Z,96003.21
2023-10-22T15:45:58.826Z,96006.29
2023-10-22T15:48:37.819Z,96010.25
2023-10-22T15:51:06.540Z,96015.14
2023-10-22T15:53:36.521Z,96015.73
2023-10-22T15:56:08.130Z,96021.63
2023-10-22T15:58:36.417Z,96032.20
2023-10-22T16:01:05.529Z,96036.74
2023-10-22T16:03:33.849Z,96038.11
2023-10-22T16:06:02.526Z,96036.71
2023-10-22T16:08:31.007Z,96042.35
2023-10-22T16:10:59.743Z,96043.94
2023-10-22T16:13:28.208Z,96049.05
2023-10-22T16:15:56.961Z,96055.92
2023-10-22T16:18:25.380Z,96058.58
2023-10-22T16:20:53.888Z,96063.59
2023-10-22T16:23:22.355Z,96065.24
2023-10-22T16:25:50.612Z,96067.88
2023-10-22T16:28:18.926Z,96069.69
2023-10-22T16:30:53.418Z,96071.09
2023-10-22T16:33:22.022Z,96069.61
2023-10-22T16:35:50.547Z,96070.15
2023-10-22T16:38:18.877Z,96070.98
2023-10-22T16:40:47.604Z,96065.36
2023-10-22T16:43:15.934Z,96062.23
2023-10-22T16:45:48.157Z,96070.92
2023-10-22T16:48:16.829Z,96065.47
2023-10-22T16:50:45.470Z,96070.26
2023-10-22T16:53:13.828Z,96064.29
2023-10-22T16:55:42.194Z,96071.20
2023-10-22T16:58:10.484Z,96071.59
2023-10-22T17:00:38.843Z,96073.48
2023-10-22T17:03:07.347Z,96075.45
2023-10-22T17:05:35.926Z,96071.55
2023-10-22T17:08:05.535Z,96081.11
2023-10-22T17:10:39.125Z,96087.84
2023-10-22T17:13:07.464Z,96092.88
2023-10-22T17:15:37.122Z,96095.41
2023-10-22T17:18:05.883Z,96098.52
2023-10-22T17:20:40.120Z,96105.63
2023-10-22T17:23:09.580Z,96107.23
2023-10-22T17:25:47.321Z,96105.41
2023-10-22T17:28:19.649Z,96102.43
2023-10-22T17:30:48.480Z,96095.11
2023-10-22T17:33:17.114Z,96099.30
2023-10-22T17:35:58.660Z,96102.80
2023-10-22T17:38:27.099Z,96104.06
2023-10-22T17:41:01.324Z,96108.33
2023-10-22T17:43:30.109Z,96111.08
2023-10-22T17:45:58.528Z,96110.27
2023-10-22T17:48:27.013Z,96111.96
2023-10-22T17:51:05.137Z,96108.66
2023-10-22T17:53:33.767Z,96112.95
2023-10-22T17:58:35.008Z,96105.94
2023-10-22T18:01:03.645Z,96112.26
2023-10-22T18:03:34.964Z,96114.64
2023-10-22T18:06:03.977Z,96109.55
2023-10-22T18:08:34.958Z,96114.84
2023-10-22T18:11:04.045Z,96119.08
2023-10-22T18:13:32.710Z,96120.97
2023-10-22T18:16:01.050Z,96121.09
2023-10-22T18:18:29.435Z,96122.59
2023-10-22T18:21:06.822Z,96131.48
2023-10-22T18:23:35.234Z,96134.81
2023-10-22T18:26:06.140Z,96140.92
2023-10-22T18:28:34.787Z,96133.61
2023-10-22T18:31:07.793Z,96137.55
2023-10-22T18:33:37.834Z,96134.04
2023-10-22T18:36:09.180Z,96135.17
2023-10-22T18:38:37.899Z,96138.98
2023-10-22T18:41:08.599Z,96139.25
2023-10-22T18:43:37.445Z,96145.63
2023-10-22T18:46:06.117Z,96147.58
2023-10-22T18:48:34.512Z,96150.51
2023-10-22T18:51:05.087Z,96154.59
2023-10-22T18:53:33.911Z,96158.91
2023-10-22T18:56:04.418Z,96159.28
2023-10-22T18:58:37.071Z,96156.10
2023-10-22T19:01:23.576Z,96157.19
2023-10-22T19:03:53.638Z,96163.17
2023-10-22T19:06:28.446Z,96164.35
2023-10-22T19:08:59.346Z,96168.73
2023-10-22T19:11:30.217Z,96176.52
2023-10-22T19:13:59.281Z,96182.25
2023-10-22T19:16:28.930Z,96184.89
2023-10-22T19:18:59.100Z,96185.97
2023-10-22T19:21:28.126Z,96183.11
2023-10-22T19:23:56.564Z,96186.98
2023-10-22T19:26:25.785Z,96189.02
2023-10-22T19:28:54.076Z,96189.88
2023-10-22T19:31:22.530Z,96187.96
2023-10-22T19:33:51.040Z,96189.65
2023-10-22T19:36:21.325Z,96190.27
2023-10-22T19:38:49.803Z,96188.48
2023-10-22T19:41:22.194Z,96185.17
2023-10-22T19:43:51.869Z,96182.64
2023-10-22T19:46:20.669Z,96182.27
2023-10-22T19:48:49.164Z,96182.71
2023-10-22T19:51:17.677Z,96182.05
2023-10-22T19:53:46.168Z,96189.64
2023-10-22T19:56:19.655Z,96191.92
2023-10-22T19:58:49.066Z,96202.07
2023-10-22T20:01:25.940Z,96209.42
2023-10-22T20:03:55.676Z,96215.02
2023-10-22T20:06:25.022Z,96218.30
2023-10-22T20:08:54.178Z,96220.93
2023-10-22T20:11:24.180Z,96224.29
2023-10-22T20:13:52.723Z,96225.50
2023-10-22T20:16:23.472Z,96225.64
2023-10-22T20:18:52.747Z,96235.45
2023-10-22T20:21:22.651Z,96237.64
2023-10-22T20:23:52.525Z,96242.29
2023-10-22T20:26:22.392Z,96243.49
2023-10-22T20:28:50.829Z,96247.09
2023-10-22T20:31:19.536Z,96249.38
2023-10-22T20:33:49.462Z,96251.73
2023-10-22T20:36:18.578Z,96254.15
2023-10-22T20:38:47.572Z,96254.09
2023-10-22T20:41:16.961Z,96257.13
2023-10-22T20:43:45.654Z,96257.14
2023-10-22T20:46:14.139Z,96259.48
2023-10-22T20:48:42.674Z,96262.61
2023-10-22T20:51:13.962Z,96261.91
2023-10-22T20:53:45.358Z,96264.97
2023-10-22T20:56:14.651Z,96271.00
2023-10-22T20:58:43.293Z,96271.23
2023-10-22T21:01:22.235Z,96271.94
2023-10-22T21:03:52.510Z,96265.46
2023-10-22T21:06:21.049Z,96262.55
2023-10-22T21:08:49.453Z,96261.41
2023-10-22T21:11:18.593Z,96263.50
2023-10-22T21:13:47.768Z,96264.06
2023-10-22T21:16:16.185Z,96262.20
2023-10-22T21:18:46.828Z,96261.45
2023-10-22T21:21:15.509Z,96258.71
2023-10-22T21:23:45.944Z,96259.49
2023-10-22T21:26:14.295Z,96261.96
2023-10-22T21:28:44.996Z,96265.36
2023-10-22T21:31:13.282Z,96263.88
2023-10-22T21:33:41.665Z,96266.30
2023-10-22T21:36:13.227Z,96262.36
2023-10-22T21:38:41.536Z,96269.69
2023-10-22T21:41:16.910Z,96270.12
2023-10-22T21:43:45.278Z,96276.30
2023-10-22T21:46:13.664Z,96276.58
2023-10-22T21:48:43.426Z,96280.61
2023-10-22T21:51:12.182Z,96279.88
2023-10-22T21:53:40.553Z,96281.30
2023-10-22T21:56:08.935Z,96280.05
2023-10-22T21:58:37.284Z,96280.47
2023-10-22T22:01:06.041Z,96278.89
2023-10-22T22:03:34.850Z,96274.63
2023-10-22T22:06:03.400Z,96275.05
2023-10-22T22:08:31.712Z,96277.46
2023-10-22T22:11:00.294Z,96278.83
2023-10-22T22:13:29.236Z,96279.49
2023-10-22T22:15:57.793Z,96282.61
2023-10-22T22:18:26.323Z,96283.72
2023-10-22T22:20:54.705Z,96281.36
2023-10-22T22:23:24.074Z,96279.12
2023-10-22T22:25:52.623Z,96285.08
2023-10-22T22:28:21.052Z,96281.54
2023-10-22T22:30:49.629Z,96279.87
2023-10-22T22:33:18.219Z,96273.90
2023-10-22T22:35:46.786Z,96273.84
2023-10-22T22:38:15.134Z,96277.64
2023-10-22T22:40:43.492Z,96279.30
2023-10-22T22:43:11.830Z,96282.34
2023-10-22T22:45:40.149Z,96287.23
2023-10-22T22:48:08.603Z,96285.08
2023-10-22T22:50:36.928Z,96284.81
2023-10-22T22:53:05.259Z,96291.48
2023-10-22T22:55:34.235Z,96291.11
2023-10-22T22:58:02.764Z,96289.65
2023-10-22T23:00:31.940Z,96290.10
2023-10-22T23:03:00.445Z,96296.47
2023-10-22T23:05:28.910Z,96296.28
2023-10-22T23:07:57.336Z,96301.89
2023-10-22T23:10:25.884Z,96301.17
2023-10-22T23:12:54.233Z,96298.33
2023-10-22T23:15:22.591Z,96297.52
2023-10-22T23:17:51.240Z,96293.50
2023-10-22T23:20:19.636Z,96299.66
2023-10-22T23:22:47.977Z,96306.91
2023-10-22T23:25:16.297Z,96305.55
2023-10-22T23:27:44.762Z,96301.06
2023-10-22T23:30:13.196Z,96304.13
2023-10-22T23:32:41.858Z,96308.89
2023-10-22T23:35:10.506Z,96306.05
2023-10-22T23:37:38.814Z,96304.46
2023-10-22T23:40:08.035Z,96308.45
2023-10-22T23:42:36.389Z,96311.06
2023-10-22T23:45:05.524Z,96307.99
2023-10-22T23:47:33.796Z,96308.38
2023-10-22T23:50:02.148Z,96307.09
2023-10-22T23:52:30.435Z,96308.52
2023-10-22T23:54:58.785Z,96307.29
2023-10-22T23:57:27.125Z,96312.08
2023-10-22T23:59:55.826Z,96310.40
